Time;durP1;ratioP1;P1;durP2;ratioP2;P2;SDS_P1;SDS_P2;PMS_P1;PMS_P2;Temp;Humidity;BMP_temperature;BMP_pressure;BME280_temperature;BME280_humidity;BME280_pressure;Samples;Min_cycle;Max_cycle;Signal;HPM_P1;HPM_P2
2023/08/14 00:01:22;;;;;;;8.55;4.70;;;;;;;19.42;100.00;101492.56;5010751;28;20064;-64
2023/08/14 00:03:51;;;;;;;12.30;5.03;;;;;;;19.42;100.00;101492.56;5013038;28;20045;-63
2023/08/14 00:06:19;;;;;;;12.25;5.43;;;;;;;19.41;100.00;101492.84;5014803;28;20539;-64
2023/08/14 00:08:47;;;;;;;10.65;4.85;;;;;;;19.40;100.00;101488.47;5014620;28;20042;-64
2023/08/14 00:11:14;;;;;;;8.98;4.70;;;;;;;19.38;100.00;101483.25;4997144;28;20107;-64
2023/08/14 00:13:53;;;;;;;12.15;4.22;;;;;;;19.38;100.00;101486.00;5012382;28;20049;-64
2023/08/14 00:16:21;;;;;;;8.90;4.57;;;;;;;19.35;100.00;101489.41;4997164;28;20057;-64
2023/08/14 00:18:49;;;;;;;11.43;4.32;;;;;;;19.31;100.00;101488.38;5013041;28;20046;-64
2023/08/14 00:21:17;;;;;;;9.20;4.32;;;;;;;19.25;100.00;101486.88;4996543;28;20060;-65
2023/08/14 00:23:45;;;;;;;9.70;4.75;;;;;;;19.21;100.00;101480.31;4997432;28;20055;-64
2023/08/14 00:26:13;;;;;;;11.63;4.88;;;;;;;19.16;100.00;101482.06;5013396;28;20045;-63
2023/08/14 00:28:41;;;;;;;11.93;5.20;;;;;;;19.14;100.00;101476.03;5013162;28;20515;-66
2023/08/14 00:31:09;;;;;;;11.30;5.28;;;;;;;19.07;100.00;101467.38;4980320;28;20062;-64
2023/08/14 00:33:36;;;;;;;9.85;5.07;;;;;;;18.99;100.00;101470.84;4999254;28;20046;-64
2023/08/14 00:36:05;;;;;;;10.45;4.57;;;;;;;18.92;100.00;101467.69;4991684;28;20071;-64
2023/08/14 00:38:33;;;;;;;11.50;4.43;;;;;;;18.95;100.00;101464.31;4990196;28;20169;-64
2023/08/14 00:41:03;;;;;;;11.55;4.35;;;;;;;18.98;100.00;101471.16;5010173;28;20513;-65
2023/08/14 00:43:31;;;;;;;14.55;5.05;;;;;;;18.98;100.00;101460.94;5008415;28;20065;-64
2023/08/14 00:45:59;;;;;;;9.95;4.43;;;;;;;18.99;100.00;101473.63;5021012;28;20054;-64
2023/08/14 00:48:27;;;;;;;12.23;4.40;;;;;;;18.98;100.00;101468.38;5001321;28;20125;-63
2023/08/14 00:50:55;;;;;;;8.15;3.92;;;;;;;18.97;100.00;101462.06;5001230;28;20106;-64
2023/08/14 00:53:26;;;;;;;8.00;4.13;;;;;;;19.01;100.00;101470.56;4971849;28;20560;-64
2023/08/14 00:55:54;;;;;;;10.93;5.25;;;;;;;19.00;100.00;101466.97;4997606;28;20049;-64
2023/08/14 00:58:23;;;;;;;9.60;4.45;;;;;;;18.98;100.00;101458.19;4996900;28;20107;-64
2023/08/14 01:00:51;;;;;;;8.35;4.25;;;;;;;18.98;100.00;101466.47;5015015;28;20375;-64
2023/08/14 01:03:20;;;;;;;9.40;4.53;;;;;;;18.92;100.00;101467.69;4996546;28;20104;-64
2023/08/14 01:05:48;;;;;;;11.23;4.72;;;;;;;18.88;100.00;101461.13;4978770;28;20046;-65
2023/08/14 01:08:16;;;;;;;10.63;4.70;;;;;;;18.81;100.00;101455.22;5013073;28;20425;-62
2023/08/14 01:11:06;;;;;;;11.70;5.05;;;;;;;18.74;100.00;101452.88;4984278;28;20050;-64
2023/08/14 01:13:37;;;;;;;11.40;5.35;;;;;;;18.72;100.00;101455.09;4983714;28;20042;-65
2023/08/14 01:16:08;;;;;;;9.90;4.70;;;;;;;18.70;100.00;101449.88;5000438;28;20050;-65
2023/08/14 01:18:38;;;;;;;8.75;4.22;;;;;;;18.70;100.00;101455.41;5016049;28;20049;-65
2023/08/14 01:21:11;;;;;;;10.95;4.68;;;;;;;18.71;100.00;101451.53;5001614;28;20060;-65
2023/08/14 01:24:07;;;;;;;10.75;4.65;;;;;;;18.76;100.00;101452.53;4982260;28;20097;-65
2023/08/14 01:26:35;;;;;;;8.00;4.40;;;;;;;18.81;100.00;101449.69;4981092;28;20058;-63
2023/08/14 01:29:03;;;;;;;9.90;4.88;;;;;;;18.79;100.00;101449.22;4996708;28;20050;-64
2023/08/14 01:31:31;;;;;;;9.00;4.90;;;;;;;18.81;100.00;101444.16;4998573;28;20042;-65
2023/08/14 01:33:59;;;;;;;14.55;5.68;;;;;;;18.84;100.00;101449.09;5020946;28;20046;-63
2023/08/14 01:36:40;;;;;;;10.70;5.28;;;;;;;18.85;100.00;101445.19;5002211;28;20485;-65
2023/08/14 01:39:15;;;;;;;9.35;4.90;;;;;;;18.80;100.00;101437.03;5000712;28;20045;-64
2023/08/14 01:42:11;;;;;;;8.98;4.63;;;;;;;18.76;100.00;101433.22;4999678;28;20058;-65
2023/08/14 01:44:40;;;;;;;11.43;4.80;;;;;;;18.75;100.00;101432.41;4987056;28;20069;-63
2023/08/14 01:47:12;;;;;;;10.25;4.90;;;;;;;18.73;100.00;101435.44;5000115;28;20046;-65
2023/08/14 01:49:41;;;;;;;9.63;5.05;;;;;;;18.70;100.00;101433.31;4999417;28;20042;-63
2023/08/14 01:52:10;;;;;;;9.80;4.90;;;;;;;18.64;100.00;101430.97;5015532;28;20041;-64
2023/08/14 01:54:38;;;;;;;9.38;4.47;;;;;;;18.64;100.00;101423.53;5016097;28;20049;-64
2023/08/14 01:57:06;;;;;;;10.07;5.15;;;;;;;18.65;100.00;101419.63;4997541;28;20060;-64
2023/08/14 01:59:52;;;;;;;14.75;5.75;;;;;;;18.60;100.00;101416.97;4982670;28;20092;-64
2023/08/14 02:02:20;;;;;;;12.90;5.10;;;;;;;18.53;100.00;101405.53;4981904;28;20054;-64
2023/08/14 02:04:48;;;;;;;9.20;5.03;;;;;;;18.47;100.00;101406.75;5013676;28;20054;-64
2023/08/14 02:07:21;;;;;;;10.73;5.07;;;;;;;18.49;100.00;101402.56;4981962;28;20049;-64
2023/08/14 02:09:49;;;;;;;11.07;5.30;;;;;;;18.48;100.00;101400.13;4978654;28;20050;-64
2023/08/14 02:12:17;;;;;;;10.43;4.82;;;;;;;18.44;100.00;101402.66;4997498;28;20072;-64
2023/08/14 02:14:45;;;;;;;10.82;4.82;;;;;;;18.42;100.00;101393.06;4998161;28;20497;-65
2023/08/14 02:17:13;;;;;;;10.85;4.90;;;;;;;18.45;100.00;101400.75;4997406;28;20510;-64
2023/08/14 02:19:42;;;;;;;13.30;5.90;;;;;;;18.42;100.00;101391.13;4981360;28;20049;-64
2023/08/14 02:22:10;;;;;;;8.93;4.85;;;;;;;18.40;100.00;101389.78;4998164;28;20107;-64
2023/08/14 02:24:38;;;;;;;11.68;5.05;;;;;;;18.37;100.00;101387.66;4997671;28;20050;-65
2023/08/14 02:27:06;;;;;;;9.82;5.10;;;;;;;18.35;100.00;101387.13;4997191;28;20490;-64
2023/08/14 02:29:33;;;;;;;12.65;5.30;;;;;;;18.33;100.00;101386.63;5003487;28;20056;-65
2023/08/14 02:32:01;;;;;;;14.88;5.50;;;;;;;18.30;100.00;101385.28;5013682;28;20068;-65
2023/08/14 02:34:43;;;;;;;12.70;5.43;;;;;;;18.25;100.00;101375.19;5015245;28;20049;-65
2023/08/14 02:37:12;;;;;;;10.35;4.85;;;;;;;18.22;100.00;101370.28;5014693;28;20513;-65
2023/08/14 02:39:41;;;;;;;12.23;5.22;;;;;;;18.25;100.00;101366.91;4980361;28;20064;-64
2023/08/14 02:42:09;;;;;;;8.50;4.45;;;;;;;18.31;100.00;101382.25;4995847;28;20042;-65
2023/08/14 02:44:37;;;;;;;9.93;4.45;;;;;;;18.34;100.00;101374.47;4982298;28;20049;-66
2023/08/14 02:47:05;;;;;;;10.25;4.57;;;;;;;18.38;100.00;101372.75;4981491;28;20046;-63
2023/08/14 02:49:33;;;;;;;10.30;4.53;;;;;;;18.39;100.00;101377.13;4981342;28;20126;-65
2023/08/14 02:52:01;;;;;;;8.15;4.05;;;;;;;18.39;100.00;101385.41;5013908;28;20402;-65
2023/08/14 02:54:29;;;;;;;10.48;4.82;;;;;;;18.36;100.00;101384.09;5012332;28;20050;-65
2023/08/14 02:56:57;;;;;;;8.18;4.43;;;;;;;18.35;100.00;101387.13;4987600;28;20054;-66
2023/08/14 02:59:25;;;;;;;11.38;5.38;;;;;;;18.35;100.00;101387.13;4942963;28;1098133;-65
2023/08/14 03:01:53;;;;;;;11.82;5.57;;;;;;;18.27;100.00;101385.91;4978591;28;20055;-64
2023/08/14 03:04:21;;;;;;;10.70;5.45;;;;;;;18.16;100.00;101382.56;5006950;28;20058;-64
2023/08/14 03:06:49;;;;;;;12.50;5.55;;;;;;;18.04;100.00;101385.81;5015742;28;20053;-64
2023/08/14 03:09:16;;;;;;;10.25;4.90;;;;;;;17.96;100.00;101380.16;4997916;28;20057;-64
2023/08/14 03:11:44;;;;;;;11.77;5.72;;;;;;;17.91;100.00;101377.50;4981609;28;20498;-63
2023/08/14 03:14:12;;;;;;;13.48;6.40;;;;;;;17.83;100.00;101387.31;5015112;28;20486;-65
2023/08/14 03:16:40;;;;;;;12.02;5.90;;;;;;;17.79;100.00;101380.72;4998001;28;20048;-64
2023/08/14 03:19:10;;;;;;;10.77;5.40;;;;;;;17.76;100.00;101378.56;4982674;28;20171;-63
2023/08/14 03:21:38;;;;;;;11.27;5.38;;;;;;;17.76;100.00;101379.38;5014614;28;20046;-66
2023/08/14 03:24:06;;;;;;;10.48;5.63;;;;;;;17.79;100.00;101387.03;4997668;28;20122;-64
2023/08/14 03:26:34;;;;;;;11.50;5.47;;;;;;;17.82;100.00;101383.72;5014798;28;20081;-65
2023/08/14 03:29:02;;;;;;;13.40;5.40;;;;;;;17.84;100.00;101378.72;5014071;28;20062;-64
2023/08/14 03:31:31;;;;;;;13.98;5.60;;;;;;;17.89;100.00;101380.56;5013878;28;20048;-65
2023/08/14 03:34:01;;;;;;;12.43;6.00;;;;;;;17.93;100.00;101375.28;4978831;28;20038;-64
2023/08/14 03:36:30;;;;;;;13.73;5.65;;;;;;;17.97;100.00;101376.31;4978577;28;20050;-64
2023/08/14 03:39:00;;;;;;;11.73;5.20;;;;;;;18.00;100.00;101378.44;5002078;28;20042;-64
2023/08/14 03:41:28;;;;;;;10.35;6.00;;;;;;;18.06;100.00;101371.69;5015370;28;20042;-65
2023/08/14 03:43:59;;;;;;;14.18;5.72;;;;;;;18.08;100.00;101370.25;4996107;28;20097;-66
2023/08/14 03:46:27;;;;;;;15.57;6.25;;;;;;;18.11;100.00;101377.09;4997657;28;20077;-65
2023/08/14 03:48:55;;;;;;;11.63;6.05;;;;;;;18.14;100.00;101375.72;4990566;28;20049;-62
2023/08/14 03:51:23;;;;;;;13.90;6.40;;;;;;;18.14;100.00;101373.75;5033351;28;20061;-63
2023/08/14 03:53:50;;;;;;;14.93;7.00;;;;;;;18.12;100.00;101370.47;5004891;28;20585;-66
2023/08/14 03:56:20;;;;;;;15.10;6.82;;;;;;;18.08;100.00;101380.47;5004704;28;20529;-63
2023/08/14 03:58:47;;;;;;;11.65;6.22;;;;;;;18.05;100.00;101379.16;5009571;28;20078;-58
2023/08/14 04:01:15;;;;;;;9.85;5.60;;;;;;;18.02;100.00;101373.44;5012807;28;20094;-60
2023/08/14 04:03:43;;;;;;;10.85;5.95;;;;;;;17.98;100.00;101378.75;5014084;28;20046;-59
2023/08/14 04:06:11;;;;;;;12.68;5.80;;;;;;;17.96;100.00;101377.41;5030154;28;20073;-63
2023/08/14 04:08:39;;;;;;;13.95;5.85;;;;;;;17.95;100.00;101373.03;5001980;28;20136;-63
2023/08/14 04:11:07;;;;;;;15.07;6.22;;;;;;;17.95;100.00;101373.03;5003251;28;20141;-63
2023/08/14 04:13:34;;;;;;;12.50;6.15;;;;;;;17.96;100.00;101369.13;4980000;28;20128;-64
2023/08/14 04:16:03;;;;;;;11.98;6.10;;;;;;;17.95;100.00;101378.53;4982462;28;20062;-64
2023/08/14 04:18:31;;;;;;;13.38;6.82;;;;;;;17.94;100.00;101368.63;4995390;28;20055;-64
2023/08/14 04:20:59;;;;;;;13.05;6.57;;;;;;;17.95;100.00;101371.09;4993201;28;20510;-64
2023/08/14 04:23:28;;;;;;;16.15;6.80;;;;;;;17.97;100.00;101368.03;4996857;28;20151;-65
2023/08/14 04:25:56;;;;;;;16.05;7.63;;;;;;;17.99;100.00;101365.75;4995304;28;20061;-64
2023/08/14 04:28:24;;;;;;;12.60;6.68;;;;;;;17.99;100.00;101368.53;4995164;28;20049;-65
2023/08/14 04:30:52;;;;;;;15.82;6.70;;;;;;;17.98;100.00;101361.38;4995262;28;20053;-65
2023/08/14 04:33:20;;;;;;;14.57;7.40;;;;;;;17.97;100.00;101359.75;4994037;28;20061;-65
2023/08/14 04:35:48;;;;;;;12.35;6.20;;;;;;;17.93;100.00;101359.53;4976566;28;20514;-65
2023/08/14 04:38:15;;;;;;;10.52;6.15;;;;;;;17.88;100.00;101349.41;4976269;28;20411;-65
2023/08/14 04:40:47;;;;;;;11.57;6.05;;;;;;;17.82;100.00;101347.91;4976864;28;20043;-65
2023/08/14 04:43:15;;;;;;;12.18;6.75;;;;;;;17.77;100.00;101345.19;4994043;28;20472;-65
2023/08/14 04:45:43;;;;;;;14.30;6.68;;;;;;;17.74;100.00;101350.50;5012185;28;20095;-64
2023/08/14 04:48:11;;;;;;;14.75;6.78;;;;;;;17.73;100.00;101346.94;4993104;28;20057;-64
2023/08/14 04:50:40;;;;;;;14.98;7.32;;;;;;;17.73;100.00;101344.16;4977486;28;20050;-64
2023/08/14 04:53:08;;;;;;;14.07;6.60;;;;;;;17.71;100.00;101346.41;4976678;28;20046;-65
2023/08/14 04:55:38;;;;;;;16.92;7.53;;;;;;;17.74;100.00;101345.78;4994491;28;20058;-66
2023/08/14 04:58:06;;;;;;;18.67;7.80;;;;;;;17.77;100.00;101344.38;4995877;28;20046;-66
2023/08/14 05:00:35;;;;;;;15.05;7.10;;;;;;;17.79;100.00;101333.84;4996009;28;20461;-65
2023/08/14 05:03:05;;;;;;;14.82;6.97;;;;;;;17.83;100.00;101337.69;4996294;28;20053;-64
2023/08/14 05:05:34;;;;;;;12.52;7.10;;;;;;;17.84;100.00;101331.84;4963596;28;20050;-65
2023/08/14 05:08:02;;;;;;;14.63;7.20;;;;;;;17.83;100.00;101329.41;4982344;28;20058;-65
2023/08/14 05:10:30;;;;;;;12.48;7.50;;;;;;;17.82;100.00;101327.75;4985808;28;20450;-65
2023/08/14 05:12:58;;;;;;;16.73;7.68;;;;;;;17.82;100.00;101325.84;4979452;28;20054;-65
2023/08/14 05:15:26;;;;;;;12.27;6.78;;;;;;;17.83;100.00;101326.66;4996219;28;20096;-65
2023/08/14 05:17:54;;;;;;;14.88;6.65;;;;;;;17.86;100.00;101329.59;4995761;28;20049;-64
2023/08/14 05:20:22;;;;;;;15.65;7.10;;;;;;;17.94;100.00;101333.59;4995813;28;20056;-64
2023/08/14 05:22:49;;;;;;;10.10;6.05;;;;;;;17.99;100.00;101322.50;4980133;28;20050;-63
2023/08/14 05:25:17;;;;;;;14.98;6.63;;;;;;;18.02;100.00;101319.09;4996406;28;20113;-64
2023/08/14 05:27:45;;;;;;;11.52;6.18;;;;;;;18.06;100.00;101319.28;5013111;28;20096;-64
2023/08/14 05:30:16;;;;;;;13.23;6.32;;;;;;;18.07;100.00;101323.72;5013907;28;20050;-62
2023/08/14 05:32:46;;;;;;;11.13;6.07;;;;;;;18.10;100.00;101325.84;5014064;28;20056;-62
2023/08/14 05:35:16;;;;;;;12.30;6.00;;;;;;;18.14;100.00;101326.06;4997542;28;20050;-63
2023/08/14 05:37:44;;;;;;;11.68;6.68;;;;;;;18.16;100.00;101324.63;4647981;28;10000664;-63
2023/08/14 05:40:13;;;;;;;12.20;6.22;;;;;;;18.20;100.00;101322.06;4993148;28;20065;-65
2023/08/14 05:42:41;;;;;;;12.48;6.93;;;;;;;18.19;100.00;101326.78;4992800;28;20433;-63
2023/08/14 05:45:10;;;;;;;13.68;5.55;;;;;;;18.21;100.00;101327.28;5011680;28;20115;-64
2023/08/14 05:47:37;;;;;;;10.13;5.85;;;;;;;18.23;100.00;101336.06;4996955;28;20042;-64
2023/08/14 05:50:06;;;;;;;12.63;6.93;;;;;;;18.24;100.00;101334.94;5009720;28;20064;-63
2023/08/14 05:52:34;;;;;;;13.40;6.57;;;;;;;18.25;100.00;101333.78;4976153;28;20053;-64
2023/08/14 05:55:01;;;;;;;13.13;7.30;;;;;;;18.24;100.00;101339.63;5010439;28;20046;-63
2023/08/14 05:57:29;;;;;;;15.15;7.38;;;;;;;18.24;100.00;101343.22;5013193;28;20057;-63
2023/08/14 05:59:57;;;;;;;14.65;7.10;;;;;;;18.25;100.00;101355.88;5013223;28;20053;-64
2023/08/14 06:02:25;;;;;;;11.77;7.20;;;;;;;18.25;100.00;101350.34;5012597;28;20072;-63
2023/08/14 06:04:53;;;;;;;14.60;7.78;;;;;;;18.26;100.00;101352.00;5011934;28;20050;-64
2023/08/14 06:07:20;;;;;;;11.02;6.60;;;;;;;18.26;100.00;101360.28;4995835;28;20054;-63
2023/08/14 06:09:48;;;;;;;10.73;6.68;;;;;;;18.28;100.00;101365.50;5013380;28;20112;-63
2023/08/14 06:12:16;;;;;;;11.10;6.32;;;;;;;18.28;100.00;101363.53;4997241;28;20148;-63
2023/08/14 06:14:45;;;;;;;15.23;7.47;;;;;;;18.30;100.00;101371.50;4992293;28;20394;-63
2023/08/14 06:17:13;;;;;;;14.15;7.10;;;;;;;18.29;100.00;101373.44;4998295;28;20055;-64
2023/08/14 06:19:41;;;;;;;14.57;8.02;;;;;;;18.30;100.00;101369.59;4987080;28;20049;-64
2023/08/14 06:22:08;;;;;;;11.65;6.70;;;;;;;18.30;100.00;101363.22;4995015;28;20382;-66
2023/08/14 06:24:36;;;;;;;15.30;7.28;;;;;;;18.31;100.00;101365.69;5016720;28;20050;-63
2023/08/14 06:27:05;;;;;;;15.95;8.10;;;;;;;18.31;100.00;101371.19;5013723;28;20200;-63
2023/08/14 06:29:32;;;;;;;12.98;6.85;;;;;;;18.33;100.00;101372.81;4998985;28;20074;-63
2023/08/14 06:32:00;;;;;;;14.35;7.60;;;;;;;18.33;100.00;101368.16;4998995;28;20048;-63
2023/08/14 06:34:28;;;;;;;9.88;6.00;;;;;;;18.34;100.00;101360.69;4999202;28;20058;-63
2023/08/14 06:36:56;;;;;;;13.27;5.80;;;;;;;18.35;100.00;101354.03;5015670;28;20678;-63
2023/08/14 06:39:24;;;;;;;10.77;6.20;;;;;;;18.36;100.00;101352.91;5016277;28;20080;-63
2023/08/14 06:41:52;;;;;;;15.20;7.03;;;;;;;18.38;100.00;101354.25;5016145;28;20065;-64
2023/08/14 06:44:20;;;;;;;11.98;7.50;;;;;;;18.44;100.00;101360.47;4999101;28;20528;-62
2023/08/14 06:46:48;;;;;;;13.10;6.90;;;;;;;18.50;100.00;101356.47;5015499;28;20100;-61
2023/08/14 06:49:16;;;;;;;11.75;6.13;;;;;;;18.55;100.00;101358.31;5015569;28;20049;-61
2023/08/14 06:51:44;;;;;;;17.05;8.00;;;;;;;18.62;100.00;101358.72;4998871;28;20049;-64
2023/08/14 06:54:11;;;;;;;15.85;7.82;;;;;;;18.65;100.00;101353.38;4998393;28;20038;-63
2023/08/14 06:56:39;;;;;;;15.52;7.32;;;;;;;18.66;100.00;101337.63;5014529;28;20049;-62
2023/08/14 06:59:07;;;;;;;15.57;7.63;;;;;;;18.69;100.00;101332.31;5016938;28;20062;-62
2023/08/14 07:01:35;;;;;;;19.60;9.30;;;;;;;18.72;100.00;101341.91;5014896;28;20034;-65
2023/08/14 07:04:04;;;;;;;14.50;7.90;;;;;;;18.72;100.00;101337.22;4999158;28;20073;-65
2023/08/14 07:06:31;;;;;;;16.35;7.53;;;;;;;18.76;100.00;101342.09;4999570;28;20052;-64
2023/08/14 07:09:00;;;;;;;15.43;7.15;;;;;;;18.77;100.00;101344.59;5021663;28;20120;-63
2023/08/14 07:11:36;;;;;;;15.07;7.47;;;;;;;18.82;100.00;101340.91;5002639;28;20152;-64
2023/08/14 07:14:04;;;;;;;15.95;8.23;;;;;;;18.86;100.00;101331.69;4990239;28;20046;-65
2023/08/14 07:16:32;;;;;;;17.45;7.93;;;;;;;18.92;100.00;101337.91;5021327;28;20128;-64
2023/08/14 07:19:00;;;;;;;17.52;8.65;;;;;;;18.97;100.00;101337.78;5020308;28;20049;-64
2023/08/14 07:21:28;;;;;;;15.48;7.50;;;;;;;19.01;100.00;101338.00;4968650;28;20096;-65
2023/08/14 07:23:56;;;;;;;18.13;8.55;;;;;;;19.03;100.00;101341.25;5017596;28;20112;-63
2023/08/14 07:26:24;;;;;;;13.55;7.20;;;;;;;19.04;100.00;101340.13;4996794;28;20409;-64
2023/08/14 07:28:51;;;;;;;17.25;9.20;;;;;;;19.05;100.00;101338.97;4981188;28;20042;-63
2023/08/14 07:31:19;;;;;;;18.20;8.82;;;;;;;19.05;100.00;101334.28;4994387;28;20560;-65
2023/08/14 07:33:47;;;;;;;18.20;9.25;;;;;;;19.05;100.00;101333.44;4995922;28;20108;-64
2023/08/14 07:36:15;;;;;;;17.35;8.68;;;;;;;19.05;100.00;101339.81;4995474;28;20072;-63
2023/08/14 07:38:42;;;;;;;19.13;8.32;;;;;;;19.05;100.00;101334.28;4984050;28;20062;-62
2023/08/14 07:41:10;;;;;;;17.15;8.45;;;;;;;19.06;100.00;101335.09;4997168;28;20046;-63
2023/08/14 07:43:38;;;;;;;17.48;8.15;;;;;;;19.06;100.00;101346.97;4997079;28;20107;-63
2023/08/14 07:46:07;;;;;;;16.60;7.45;;;;;;;19.08;100.00;101353.00;5015314;28;20061;-63
2023/08/14 07:48:35;;;;;;;16.05;6.95;;;;;;;19.09;100.00;101362.09;4980788;28;20057;-64
2023/08/14 07:51:03;;;;;;;14.95;7.20;;;;;;;19.09;100.00;101365.66;4997205;28;20049;-64
2023/08/14 07:53:31;;;;;;;18.25;7.57;;;;;;;19.10;100.00;101367.31;5014902;28;20144;-64
2023/08/14 07:55:59;;;;;;;16.65;8.02;;;;;;;19.13;100.00;101363.91;5014804;28;20037;-63
2023/08/14 07:58:26;;;;;;;17.88;7.93;;;;;;;19.14;100.00;101360.00;4997774;28;20506;-64
2023/08/14 08:00:55;;;;;;;15.93;8.07;;;;;;;19.18;100.00;101364.94;5015551;28;20054;-64
2023/08/14 08:03:24;;;;;;;19.48;8.60;;;;;;;19.21;100.00;101365.09;5015143;28;20387;-64
2023/08/14 08:05:51;;;;;;;16.73;8.02;;;;;;;19.19;100.00;101364.59;5015016;28;20092;-64
2023/08/14 08:08:19;;;;;;;16.98;7.95;;;;;;;19.20;100.00;101357.97;4981315;28;20053;-64
2023/08/14 08:10:47;;;;;;;15.02;7.90;;;;;;;19.20;100.00;101363.47;4999237;28;20494;-62
2023/08/14 08:13:15;;;;;;;16.77;6.78;;;;;;;19.25;100.00;101370.84;5030737;28;20411;-59
2023/08/14 08:15:43;;;;;;;17.35;7.53;;;;;;;19.25;100.00;101360.59;5033337;28;20077;-58
2023/08/14 08:18:10;;;;;;;16.90;7.10;;;;;;;19.29;100.00;101358.00;5023045;28;20037;-63
2023/08/14 08:20:38;;;;;;;19.20;7.25;;;;;;;19.33;100.00;101356.25;5016650;28;20057;-63
2023/08/14 08:23:06;;;;;;;17.05;7.38;;;;;;;19.36;100.00;101355.63;5014163;28;20104;-60
2023/08/14 08:25:34;;;;;;;15.13;6.88;;;;;;;19.39;100.00;101355.00;5006988;28;20045;-64
2023/08/14 08:28:02;;;;;;;14.23;7.03;;;;;;;19.44;100.00;101349.34;5001652;28;20179;-63
2023/08/14 08:30:30;;;;;;;15.23;6.80;;;;;;;19.47;100.00;101340.41;4998825;28;20054;-64
2023/08/14 08:32:58;;;;;;;18.45;6.95;;;;;;;19.50;100.00;101339.78;4981030;28;20050;-65
2023/08/14 08:35:28;;;;;;;16.48;6.40;;;;;;;19.54;100.00;101340.78;5014922;28;20046;-65
2023/08/14 08:37:56;;;;;;;14.90;6.10;;;;;;;19.58;100.00;101327.16;4980634;28;20172;-64
2023/08/14 08:40:24;;;;;;;15.10;6.28;;;;;;;19.64;100.00;101325.06;4981002;28;20128;-65
2023/08/14 08:42:52;;;;;;;14.32;6.63;;;;;;;19.66;100.00;101331.91;4996371;28;20042;-63
2023/08/14 08:45:21;;;;;;;14.70;6.85;;;;;;;19.70;100.00;101332.13;4981006;28;20053;-64
2023/08/14 08:47:51;;;;;;;12.98;6.90;;;;;;;19.73;100.00;101324.03;4980604;28;20053;-63
2023/08/14 08:50:19;;;;;;;16.25;6.78;;;;;;;19.78;100.00;101334.94;4996797;28;20057;-63
2023/08/14 08:52:47;;;;;;;13.57;5.75;;;;;;;19.83;100.00;101320.16;4980941;28;20049;-63
2023/08/14 08:55:18;;;;;;;15.43;6.60;;;;;;;19.86;100.00;101313.97;4996936;28;20050;-64
2023/08/14 08:57:46;;;;;;;14.50;6.55;;;;;;;19.88;100.00;101308.94;4996408;28;20050;-64
2023/08/14 09:00:15;;;;;;;12.13;5.50;;;;;;;19.90;100.00;101314.97;4979972;28;20061;-64
2023/08/14 09:02:44;;;;;;;17.83;6.68;;;;;;;19.95;100.00;101317.59;5013652;28;20045;-64
2023/08/14 09:05:14;;;;;;;14.43;5.88;;;;;;;19.99;100.00;101315.84;5013743;28;20481;-64
2023/08/14 09:07:43;;;;;;;13.65;5.07;;;;;;;20.04;100.00;101309.34;4996799;28;20452;-63
2023/08/14 09:10:10;;;;;;;16.92;5.25;;;;;;;20.07;100.00;101314.22;4996376;28;20054;-63
2023/08/14 09:12:38;;;;;;;15.75;4.55;;;;;;;20.12;100.00;101304.97;5013316;28;20050;-63
2023/08/14 09:15:08;;;;;;;14.50;4.68;;;;;;;20.21;97.72;101314.13;4996619;28;20053;-65
2023/08/14 09:17:35;;;;;;;10.30;4.57;;;;;;;20.26;96.50;101313.97;4996245;28;20049;-64
2023/08/14 09:20:04;;;;;;;11.20;4.57;;;;;;;20.32;95.76;101315.44;4996233;28;20100;-63
2023/08/14 09:22:46;;;;;;;13.38;4.30;;;;;;;20.36;95.73;101316.41;5013792;28;20120;-63
2023/08/14 09:25:15;;;;;;;10.73;4.30;;;;;;;20.39;96.39;101303.88;5013176;28;20045;-64
2023/08/14 09:27:43;;;;;;;13.75;4.40;;;;;;;20.47;94.35;101299.50;5015985;28;20038;-64
2023/08/14 09:30:13;;;;;;;10.00;3.88;;;;;;;20.50;93.47;101304.41;5021350;28;20120;-62
2023/08/14 09:32:41;;;;;;;14.82;4.95;;;;;;;20.54;93.04;101311.75;4987936;28;20413;-64
2023/08/14 09:35:09;;;;;;;11.55;4.22;;;;;;;20.59;93.92;101308.84;5019141;28;20057;-65
2023/08/14 09:37:37;;;;;;;10.25;4.10;;;;;;;20.62;94.55;101312.94;4985418;28;20212;-63
2023/08/14 09:40:10;;;;;;;10.80;4.10;;;;;;;20.60;94.95;101315.19;5001225;28;20065;-64
2023/08/14 09:42:38;;;;;;;14.45;4.03;;;;;;;20.63;93.02;101320.09;5000818;28;20042;-64
2023/08/14 09:45:07;;;;;;;9.48;3.85;;;;;;;20.66;93.59;101330.53;4999961;28;20080;-64
2023/08/14 09:47:35;;;;;;;10.02;3.80;;;;;;;20.72;91.91;101325.63;5016077;28;20107;-63
2023/08/14 09:50:06;;;;;;;8.90;3.55;;;;;;;20.77;91.26;101331.81;5019395;28;20524;-64
2023/08/14 09:52:34;;;;;;;9.50;3.28;;;;;;;20.80;91.71;101327.59;5000716;28;20044;-65
2023/08/14 09:55:02;;;;;;;8.10;3.13;;;;;;;20.82;91.07;101323.34;4999650;28;20050;-65
2023/08/14 09:57:38;;;;;;;;;;;;;;;20.86;95.07;101323.53;5000439;28;20487;-64
2023/08/14 10:00:06;;;;;;;12.77;3.30;;;;;;;20.90;88.96;101323.69;5016024;28;19921;-65
2023/08/14 10:02:36;;;;;;;10.02;2.80;;;;;;;20.94;88.62;101319.13;5000191;28;20103;-64
2023/08/14 10:05:09;;;;;;;13.75;4.47;;;;;;;20.99;88.52;101321.72;4999723;28;20502;-65
2023/08/14 10:07:38;;;;;;;12.18;3.75;;;;;;;21.05;91.03;101314.88;5017423;28;20050;-66
2023/08/14 10:10:09;;;;;;;10.05;3.40;;;;;;;21.08;88.39;101313.41;4997503;28;20567;-66
2023/08/14 10:13:04;;;;;;;11.30;3.45;;;;;;;21.10;88.19;101309.19;5014498;28;20056;-62
2023/08/14 10:15:37;;;;;;;9.93;2.88;;;;;;;21.13;85.07;101291.88;5017108;28;20057;-65
2023/08/14 10:18:13;;;;;;;9.90;3.03;;;;;;;21.20;84.12;101285.84;5015585;28;20049;-66
2023/08/14 10:20:43;;;;;;;13.98;3.20;;;;;;;21.26;82.44;101290.06;5015756;28;20050;-65
2023/08/14 10:23:14;;;;;;;8.57;3.08;;;;;;;21.33;82.63;101279.28;4993873;28;20096;-65
2023/08/14 10:25:47;;;;;;;8.88;2.70;;;;;;;21.36;81.91;101270.34;4996029;28;20057;-65
2023/08/14 10:28:16;;;;;;;12.38;3.40;;;;;;;21.43;79.98;101265.13;5011068;28;20042;-65
2023/08/14 10:30:45;;;;;;;12.93;3.08;;;;;;;21.50;79.38;101270.13;5016026;28;20405;-66
2023/08/14 10:33:13;;;;;;;7.88;3.08;;;;;;;21.54;78.22;101260.03;5015910;28;20770;-65
2023/08/14 10:35:55;;;;;;;8.35;2.92;;;;;;;21.59;77.55;101251.50;4997514;28;20045;-64
2023/08/14 10:38:44;;;;;;;8.63;2.45;;;;;;;21.62;76.05;101245.31;5005191;28;20046;-65
2023/08/14 10:41:11;;;;;;;7.65;2.90;;;;;;;21.65;77.86;101249.38;4998972;28;20448;-64
2023/08/14 10:43:40;;;;;;;8.38;2.92;;;;;;;21.67;78.41;101235.97;4998570;28;20042;-64
2023/08/14 10:46:14;;;;;;;8.10;2.85;;;;;;;21.72;79.73;101243.31;4983004;28;20060;-66
2023/08/14 10:48:44;;;;;;;8.75;2.92;;;;;;;21.75;80.63;101248.19;5013525;28;20543;-64
2023/08/14 10:51:16;;;;;;;8.95;3.00;;;;;;;21.83;80.27;101244.56;4983036;28;20069;-64
2023/08/14 10:53:45;;;;;;;7.45;2.60;;;;;;;21.86;79.06;101238.34;4998846;28;20050;-65
2023/08/14 10:56:13;;;;;;;9.00;2.85;;;;;;;21.85;79.46;101239.50;5008292;28;20498;-65
2023/08/14 10:58:47;;;;;;;6.97;2.90;;;;;;;21.86;79.11;101244.72;4998179;28;20045;-64
2023/08/14 11:01:17;;;;;;;8.80;2.70;;;;;;;21.95;77.76;101257.72;5016124;28;20054;-65
2023/08/14 11:04:05;;;;;;;11.50;3.53;;;;;;;22.01;77.65;101259.97;4996672;28;20046;-65
2023/08/14 11:07:02;;;;;;;9.07;2.72;;;;;;;22.04;78.87;101250.16;4997674;28;20038;-64
2023/08/14 11:09:33;;;;;;;9.07;3.30;;;;;;;21.99;78.34;101248.41;5015120;28;20058;-65
2023/08/14 11:12:05;;;;;;;6.80;2.60;;;;;;;21.97;76.87;101250.69;5015073;28;20104;-64
2023/08/14 11:14:41;;;;;;;7.90;2.70;;;;;;;21.97;76.11;101247.09;5014455;28;20052;-64
2023/08/14 11:17:11;;;;;;;9.30;2.80;;;;;;;22.00;76.91;101255.56;5014917;28;20486;-65
2023/08/14 11:19:39;;;;;;;8.90;3.05;;;;;;;22.02;79.88;101249.69;4998069;28;20105;-64
2023/08/14 11:22:07;;;;;;;7.13;3.05;;;;;;;22.05;77.92;101246.22;4994849;28;20053;-65